sensor_id;sensor_type;location;lat;lon;timestamp;pressure;altitude;pressure_sealevel;temperature;humidity
30516;BME280;17297;54.022;10.760;2022-08-24T00:00:55;101966.25;;;22.41;56.38
30516;BME280;17297;54.022;10.760;2022-08-24T00:03:20;101968.97;;;22.41;56.30
30516;BME280;17297;54.022;10.760;2022-08-24T00:05:46;101969.19;;;22.40;56.65
30516;BME280;17297;54.022;10.760;2022-08-24T00:08:13;101969.81;;;22.42;56.73
30516;BME280;17297;54.022;10.760;2022-08-24T00:10:39;101967.91;;;22.42;56.80
30516;BME280;17297;54.022;10.760;2022-08-24T00:13:04;101974.19;;;22.43;57.00
30516;BME280;17297;54.022;10.760;2022-08-24T00:15:30;101965.97;;;22.43;57.22
30516;BME280;17297;54.022;10.760;2022-08-24T00:17:56;101967.91;;;22.42;57.10
30516;BME280;17297;54.022;10.760;2022-08-24T00:20:21;101965.97;;;22.43;57.21
30516;BME280;17297;54.022;10.760;2022-08-24T00:22:47;101967.91;;;22.42;57.26
30516;BME280;17297;54.022;10.760;2022-08-24T00:25:13;101975.53;;;22.40;57.02
30516;BME280;17297;54.022;10.760;2022-08-24T00:27:39;101971.59;;;22.36;56.55
30516;BME280;17297;54.022;10.760;2022-08-24T00:30:09;101986.88;;;22.32;56.82
30516;BME280;17297;54.022;10.760;2022-08-24T00:32:35;101981.28;;;22.27;56.86
30516;BME280;17297;54.022;10.760;2022-08-24T00:35:04;101986.88;;;22.20;56.75
30516;BME280;17297;54.022;10.760;2022-08-24T00:37:29;101987.59;;;22.16;56.67
30516;BME280;17297;54.022;10.760;2022-08-24T00:39:56;101986.66;;;22.10;56.92
30516;BME280;17297;54.022;10.760;2022-08-24T00:42:23;101983.78;;;22.05;56.72
30516;BME280;17297;54.022;10.760;2022-08-24T00:44:48;101990.81;;;22.01;57.08
30516;BME280;17297;54.022;10.760;2022-08-24T00:47:21;101985.81;;;21.98;57.01
30516;BME280;17297;54.022;10.760;2022-08-24T00:49:58;101991.28;;;21.98;57.36
30516;BME280;17297;54.022;10.760;2022-08-24T00:52:38;101989.03;;;21.95;57.12
30516;BME280;17297;54.022;10.760;2022-08-24T00:55:18;101988.69;;;21.91;57.37
30516;BME280;17297;54.022;10.760;2022-08-24T00:57:48;101995.25;;;21.90;57.55
30516;BME280;17297;54.022;10.760;2022-08-24T01:00:19;101991.91;;;21.88;57.52
30516;BME280;17297;54.022;10.760;2022-08-24T01:02:48;101989.38;;;21.86;57.71
30516;BME280;17297;54.022;10.760;2022-08-24T01:05:15;101982.50;;;21.84;57.74
30516;BME280;17297;54.022;10.760;2022-08-24T01:07:42;101997.25;;;21.83;57.63
30516;BME280;17297;54.022;10.760;2022-08-24T01:10:11;101995.59;;;21.82;58.07
30516;BME280;17297;54.022;10.760;2022-08-24T01:12:38;101993.94;;;21.81;58.16
30516;BME280;17297;54.022;10.760;2022-08-24T01:15:08;101989.03;;;21.83;58.40
30516;BME280;17297;54.022;10.760;2022-08-24T01:17:36;101989.63;;;21.85;58.52
30516;BME280;17297;54.022;10.760;2022-08-24T01:20:21;101983.06;;;21.86;58.49
30516;BME280;17297;54.022;10.760;2022-08-24T01:22:56;101975.94;;;21.85;58.44
30516;BME280;17297;54.022;10.760;2022-08-24T01:25:25;101980.81;;;21.83;58.55
30516;BME280;17297;54.022;10.760;2022-08-24T01:27:55;101973.06;;;21.80;58.43
30516;BME280;17297;54.022;10.760;2022-08-24T01:30:21;101976.53;;;21.75;58.64
30516;BME280;17297;54.022;10.760;2022-08-24T01:32:55;101975.09;;;21.73;58.56
30516;BME280;17297;54.022;10.760;2022-08-24T01:35:21;101974.50;;;21.71;58.55
30516;BME280;17297;54.022;10.760;2022-08-24T01:37:48;101969.84;;;21.71;59.04
30516;BME280;17297;54.022;10.760;2022-08-24T01:40:14;101969.28;;;21.69;59.05
30516;BME280;17297;54.022;10.760;2022-08-24T01:42:47;101976.88;;;21.67;59.27
30516;BME280;17297;54.022;10.760;2022-08-24T01:45:12;101974.16;;;21.67;59.57
30516;BME280;17297;54.022;10.760;2022-08-24T01:47:39;101983.44;;;21.66;59.36
30516;BME280;17297;54.022;10.760;2022-08-24T01:50:06;101979.00;;;21.65;59.51
30516;BME280;17297;54.022;10.760;2022-08-24T01:52:32;101969.41;;;21.62;60.03
30516;BME280;17297;54.022;10.760;2022-08-24T01:54:57;101973.19;;;21.61;60.09
30516;BME280;17297;54.022;10.760;2022-08-24T01:57:25;101978.09;;;21.59;60.54
30516;BME280;17297;54.022;10.760;2022-08-24T01:59:51;101973.91;;;21.57;60.50
30516;BME280;17297;54.022;10.760;2022-08-24T02:02:21;101985.94;;;21.56;60.38
30516;BME280;17297;54.022;10.760;2022-08-24T02:04:49;101976.28;;;21.53;60.77
30516;BME280;17297;54.022;10.760;2022-08-24T02:07:14;101975.06;;;21.49;60.75
30516;BME280;17297;54.022;10.760;2022-08-24T02:09:40;101972.81;;;21.46;61.12
30516;BME280;17297;54.022;10.760;2022-08-24T02:12:06;101977.09;;;21.42;61.13
30516;BME280;17297;54.022;10.760;2022-08-24T02:14:34;101978.19;;;21.41;61.36
30516;BME280;17297;54.022;10.760;2022-08-24T02:16:59;101986.38;;;21.41;61.67
30516;BME280;17297;54.022;10.760;2022-08-24T02:19:25;101983.41;;;21.42;61.60
30516;BME280;17297;54.022;10.760;2022-08-24T02:21:52;101988.41;;;21.45;61.67
30516;BME280;17297;54.022;10.760;2022-08-24T02:24:18;101983.53;;;21.48;61.28
30516;BME280;17297;54.022;10.760;2022-08-24T02:26:43;101990.66;;;21.49;61.67
30516;BME280;17297;54.022;10.760;2022-08-24T02:29:09;101988.19;;;21.47;61.50
30516;BME280;17297;54.022;10.760;2022-08-24T02:31:36;101987.94;;;21.49;61.74
30516;BME280;17297;54.022;10.760;2022-08-24T02:34:03;101992.34;;;21.50;61.69
30516;BME280;17297;54.022;10.760;2022-08-24T02:36:28;101999.50;;;21.51;61.58
30516;BME280;17297;54.022;10.760;2022-08-24T02:38:57;102003.88;;;21.52;61.85
30516;BME280;17297;54.022;10.760;2022-08-24T02:41:23;102007.44;;;21.52;61.57
30516;BME280;17297;54.022;10.760;2022-08-24T02:43:51;102015.44;;;21.54;61.85
30516;BME280;17297;54.022;10.760;2022-08-24T02:46:18;102007.25;;;21.54;61.56
30516;BME280;17297;54.022;10.760;2022-08-24T02:48:44;102013.53;;;21.54;61.62
30516;BME280;17297;54.022;10.760;2022-08-24T02:51:50;102009.97;;;21.54;61.92
30516;BME280;17297;54.022;10.760;2022-08-24T02:54:09;102011.06;;;21.53;61.77
30516;BME280;17297;54.022;10.760;2022-08-24T02:56:35;102014.84;;;21.52;61.98
30516;BME280;17297;54.022;10.760;2022-08-24T02:59:01;102012.34;;;21.50;61.83
30516;BME280;17297;54.022;10.760;2022-08-24T03:01:28;102014.72;;;21.47;61.37
30516;BME280;17297;54.022;10.760;2022-08-24T03:03:55;102019.59;;;21.44;61.65
30516;BME280;17297;54.022;10.760;2022-08-24T03:06:21;102010.78;;;21.42;61.84
30516;BME280;17297;54.022;10.760;2022-08-24T03:08:46;102012.94;;;21.40;62.17
30516;BME280;17297;54.022;10.760;2022-08-24T03:11:12;102018.88;;;21.37;62.48
30516;BME280;17297;54.022;10.760;2022-08-24T03:13:38;102016.78;;;21.33;62.34
30516;BME280;17297;54.022;10.760;2022-08-24T03:16:05;102016.66;;;21.28;62.77
30516;BME280;17297;54.022;10.760;2022-08-24T03:18:31;102017.16;;;21.25;62.76
30516;BME280;17297;54.022;10.760;2022-08-24T03:20:59;102015.34;;;21.18;63.24
30516;BME280;17297;54.022;10.760;2022-08-24T03:23:25;102015.81;;;21.15;63.45
30516;BME280;17297;54.022;10.760;2022-08-24T03:25:52;102019.00;;;21.12;63.64
30516;BME280;17297;54.022;10.760;2022-08-24T03:28:20;102019.47;;;21.09;64.52
30516;BME280;17297;54.022;10.760;2022-08-24T03:30:47;102011.72;;;21.06;64.37
30516;BME280;17297;54.022;10.760;2022-08-24T03:33:13;102013.59;;;21.06;64.90
30516;BME280;17297;54.022;10.760;2022-08-24T03:35:39;102014.69;;;21.05;64.99
30516;BME280;17297;54.022;10.760;2022-08-24T03:38:04;102011.94;;;21.05;64.99
30516;BME280;17297;54.022;10.760;2022-08-24T03:40:30;102018.03;;;21.07;65.30
30516;BME280;17297;54.022;10.760;2022-08-24T03:42:58;102012.56;;;21.07;65.66
30516;BME280;17297;54.022;10.760;2022-08-24T03:45:25;102011.72;;;21.06;65.66
30516;BME280;17297;54.022;10.760;2022-08-24T03:47:51;102019.06;;;21.06;65.88
30516;BME280;17297;54.022;10.760;2022-08-24T03:50:19;102014.47;;;21.06;66.20
30516;BME280;17297;54.022;10.760;2022-08-24T03:52:45;102022.44;;;21.08;66.44
30516;BME280;17297;54.022;10.760;2022-08-24T03:55:11;102023.03;;;21.10;66.88
30516;BME280;17297;54.022;10.760;2022-08-24T03:57:39;102019.22;;;21.11;66.85
30516;BME280;17297;54.022;10.760;2022-08-24T04:00:08;102025.53;;;21.11;67.01
30516;BME280;17297;54.022;10.760;2022-08-24T04:02:40;102033.53;;;21.13;66.94
30516;BME280;17297;54.022;10.760;2022-08-24T04:05:07;102030.16;;;21.11;67.40
30516;BME280;17297;54.022;10.760;2022-08-24T04:07:33;102024.94;;;21.09;67.42
30516;BME280;17297;54.022;10.760;2022-08-24T04:09:59;102033.72;;;21.11;67.55
30516;BME280;17297;54.022;10.760;2022-08-24T04:12:25;102036.47;;;21.11;67.20
30516;BME280;17297;54.022;10.760;2022-08-24T04:14:51;102034.56;;;21.12;67.40
30516;BME280;17297;54.022;10.760;2022-08-24T04:17:19;102037.09;;;21.13;67.12
30516;BME280;17297;54.022;10.760;2022-08-24T04:19:46;102036.25;;;21.13;67.34
30516;BME280;17297;54.022;10.760;2022-08-24T04:22:33;102033.16;;;21.09;67.17
30516;BME280;17297;54.022;10.760;2022-08-24T04:24:59;102036.47;;;21.11;67.31
30516;BME280;17297;54.022;10.760;2022-08-24T04:27:26;102026.97;;;21.14;67.21
30516;BME280;17297;54.022;10.760;2022-08-24T04:29:52;102038.28;;;21.17;67.08
30516;BME280;17297;54.022;10.760;2022-08-24T04:32:18;102035.06;;;21.20;67.21
30516;BME280;17297;54.022;10.760;2022-08-24T04:34:44;102042.59;;;21.25;66.80
30516;BME280;17297;54.022;10.760;2022-08-24T04:37:10;102038.31;;;21.29;67.32
30516;BME280;17297;54.022;10.760;2022-08-24T04:39:37;102042.25;;;21.33;66.95
30516;BME280;17297;54.022;10.760;2022-08-24T04:42:15;102044.91;;;21.40;66.65
30516;BME280;17297;54.022;10.760;2022-08-24T04:44:43;102042.94;;;21.47;66.85
30516;BME280;17297;54.022;10.760;2022-08-24T04:47:08;102038.19;;;21.54;66.96
30516;BME280;17297;54.022;10.760;2022-08-24T04:49:36;102033.56;;;21.66;66.97
30516;BME280;17297;54.022;10.760;2022-08-24T04:52:03;102042.25;;;21.75;66.74
30516;BME280;17297;54.022;10.760;2022-08-24T04:54:30;102039.63;;;21.80;66.60
30516;BME280;17297;54.022;10.760;2022-08-24T04:57:09;102039.66;;;21.92;66.63
30516;BME280;17297;54.022;10.760;2022-08-24T04:59:35;102043.94;;;22.11;66.30
30516;BME280;17297;54.022;10.760;2022-08-24T05:02:00;102040.88;;;22.31;65.89
30516;BME280;17297;54.022;10.760;2022-08-24T05:04:26;102038.94;;;22.55;65.68
30516;BME280;17297;54.022;10.760;2022-08-24T05:06:51;102037.75;;;22.80;64.89
30516;BME280;17297;54.022;10.760;2022-08-24T05:09:18;102047.72;;;23.10;64.52
30516;BME280;17297;54.022;10.760;2022-08-24T05:11:44;102044.72;;;23.40;64.06
30516;BME280;17297;54.022;10.760;2022-08-24T05:14:09;102051.78;;;23.52;63.48
30516;BME280;17297;54.022;10.760;2022-08-24T05:16:36;102046.19;;;23.47;63.20
30516;BME280;17297;54.022;10.760;2022-08-24T05:19:03;102053.06;;;23.33;63.25
30516;BME280;17297;54.022;10.760;2022-08-24T05:21:31;102050.56;;;23.15;63.47
30516;BME280;17297;54.022;10.760;2022-08-24T05:23:57;102051.59;;;22.97;63.83
30516;BME280;17297;54.022;10.760;2022-08-24T05:26:27;102048.16;;;22.78;64.05
30516;BME280;17297;54.022;10.760;2022-08-24T05:28:59;102051.41;;;22.63;64.48
30516;BME280;17297;54.022;10.760;2022-08-24T05:31:30;102054.19;;;22.51;64.45
30516;BME280;17297;54.022;10.760;2022-08-24T05:33:59;102050.63;;;22.39;65.22
30516;BME280;17297;54.022;10.760;2022-08-24T05:36:28;102062.78;;;22.31;65.40
30516;BME280;17297;54.022;10.760;2022-08-24T05:38:56;102055.53;;;22.25;65.47
30516;BME280;17297;54.022;10.760;2022-08-24T05:41:23;102063.63;;;22.20;65.76
30516;BME280;17297;54.022;10.760;2022-08-24T05:43:56;102063.28;;;22.17;65.81
30516;BME280;17297;54.022;10.760;2022-08-24T05:46:23;102066.22;;;22.15;65.93
30516;BME280;17297;54.022;10.760;2022-08-24T05:48:49;102072.53;;;22.16;66.31
30516;BME280;17297;54.022;10.760;2022-08-24T05:51:28;102070.66;;;22.16;66.26
30516;BME280;17297;54.022;10.760;2022-08-24T05:53:59;102073.16;;;22.18;66.58
30516;BME280;17297;54.022;10.760;2022-08-24T05:56:35;102069.09;;;22.20;67.08
30516;BME280;17297;54.022;10.760;2022-08-24T05:59:00;102075.81;;;22.24;66.95
30516;BME280;17297;54.022;10.760;2022-08-24T06:01:27;102070.06;;;22.26;67.68
30516;BME280;17297;54.022;10.760;2022-08-24T06:03:54;102071.25;;;22.30;67.63
30516;BME280;17297;54.022;10.760;2022-08-24T06:06:21;102080.91;;;22.32;67.88
30516;BME280;17297;54.022;10.760;2022-08-24T06:08:55;102080.69;;;22.34;67.72
30516;BME280;17297;54.022;10.760;2022-08-24T06:11:36;102073.50;;;22.45;68.00
30516;BME280;17297;54.022;10.760;2022-08-24T06:14:09;102081.59;;;22.51;68.07
30516;BME280;17297;54.022;10.760;2022-08-24T06:16:44;102078.16;;;22.56;67.91
30516;BME280;17297;54.022;10.760;2022-08-24T06:19:12;102087.19;;;22.56;67.87
30516;BME280;17297;54.022;10.760;2022-08-24T06:21:38;102089.13;;;22.56;68.11
30516;BME280;17297;54.022;10.760;2022-08-24T06:24:06;102093.16;;;22.53;68.31
30516;BME280;17297;54.022;10.760;2022-08-24T06:26:32;102094.25;;;22.52;68.37
30516;BME280;17297;54.022;10.760;2022-08-24T06:29:18;102092.00;;;22.49;68.34
30516;BME280;17297;54.022;10.760;2022-08-24T06:31:46;102084.25;;;22.46;68.26
30516;BME280;17297;54.022;10.760;2022-08-24T06:34:15;102093.28;;;22.47;68.72
30516;BME280;17297;54.022;10.760;2022-08-24T06:36:42;102089.56;;;22.65;68.65
30516;BME280;17297;54.022;10.760;2022-08-24T06:39:08;102090.69;;;22.92;68.94
30516;BME280;17297;54.022;10.760;2022-08-24T06:41:37;102096.50;;;23.36;68.04
30516;BME280;17297;54.022;10.760;2022-08-24T06:44:07;102097.88;;;23.50;66.85
30516;BME280;17297;54.022;10.760;2022-08-24T06:46:44;102107.53;;;23.53;66.69
30516;BME280;17297;54.022;10.760;2022-08-24T06:49:10;102098.16;;;23.66;66.66
30516;BME280;17297;54.022;10.760;2022-08-24T06:51:35;102092.28;;;23.74;66.18
30516;BME280;17297;54.022;10.760;2022-08-24T06:54:01;102095.19;;;23.84;65.83
30516;BME280;17297;54.022;10.760;2022-08-24T06:56:28;102094.38;;;23.84;65.60
30516;BME280;17297;54.022;10.760;2022-08-24T06:58:54;102101.09;;;23.76;65.49
30516;BME280;17297;54.022;10.760;2022-08-24T07:01:23;102105.94;;;23.69;65.79
30516;BME280;17297;54.022;10.760;2022-08-24T07:03:49;102106.78;;;23.86;65.77
30516;BME280;17297;54.022;10.760;2022-08-24T07:06:21;102104.53;;;24.00;65.32
30516;BME280;17297;54.022;10.760;2022-08-24T07:08:47;102102.94;;;24.04;65.22
30516;BME280;17297;54.022;10.760;2022-08-24T07:11:15;102100.94;;;24.00;65.34
30516;BME280;17297;54.022;10.760;2022-08-24T07:13:46;102104.09;;;23.91;65.06
30516;BME280;17297;54.022;10.760;2022-08-24T07:16:14;102110.69;;;23.90;65.58
30516;BME280;17297;54.022;10.760;2022-08-24T07:18:45;102115.19;;;23.96;65.13
30516;BME280;17297;54.022;10.760;2022-08-24T07:21:11;102118.28;;;24.00;64.83
30516;BME280;17297;54.022;10.760;2022-08-24T07:23:44;102110.84;;;24.01;65.29
30516;BME280;17297;54.022;10.760;2022-08-24T07:26:17;102112.50;;;24.02;65.52
30516;BME280;17297;54.022;10.760;2022-08-24T07:28:43;102114.84;;;24.10;64.84
30516;BME280;17297;54.022;10.760;2022-08-24T07:31:09;102112.19;;;24.15;64.63
30516;BME280;17297;54.022;10.760;2022-08-24T07:33:43;102109.34;;;24.10;64.15
30516;BME280;17297;54.022;10.760;2022-08-24T07:36:09;102109.75;;;24.02;64.33
30516;BME280;17297;54.022;10.760;2022-08-24T07:38:35;102110.75;;;23.95;64.41
30516;BME280;17297;54.022;10.760;2022-08-24T07:41:01;102117.84;;;23.91;64.66
30516;BME280;17297;54.022;10.760;2022-08-24T07:43:28;102115.84;;;23.87;65.32
30516;BME280;17297;54.022;10.760;2022-08-24T07:45:53;102110.88;;;23.84;65.16
30516;BME280;17297;54.022;10.760;2022-08-24T07:48:20;102110.03;;;23.83;65.44
30516;BME280;17297;54.022;10.760;2022-08-24T07:50:46;102108.34;;;23.82;65.70
30516;BME280;17297;54.022;10.760;2022-08-24T07:53:12;102107.53;;;23.82;65.35
30516;BME280;17297;54.022;10.760;2022-08-24T07:55:38;102114.09;;;23.81;65.99
30516;BME280;17297;54.022;10.760;2022-08-24T07:58:04;102118.78;;;23.80;65.86
30516;BME280;17297;54.022;10.760;2022-08-24T08:00:30;102121.25;;;23.82;65.31
30516;BME280;17297;54.022;10.760;2022-08-24T08:02:59;102121.03;;;23.83;65.91
30516;BME280;17297;54.022;10.760;2022-08-24T08:05:28;102120.75;;;23.85;65.43
30516;BME280;17297;54.022;10.760;2022-08-24T08:07:55;102120.53;;;23.86;65.22
30516;BME280;17297;54.022;10.760;2022-08-24T08:10:21;102122.19;;;23.87;64.85
30516;BME280;17297;54.022;10.760;2022-08-24T08:12:48;102128.25;;;23.89;64.44
30516;BME280;17297;54.022;10.760;2022-08-24T08:15:14;102126.34;;;23.90;64.89
30516;BME280;17297;54.022;10.760;2022-08-24T08:17:50;102126.09;;;23.91;64.73
30516;BME280;17297;54.022;10.760;2022-08-24T08:20:15;102132.75;;;23.95;64.33
30516;BME280;17297;54.022;10.760;2022-08-24T08:22:41;102127.84;;;23.97;64.51
30516;BME280;17297;54.022;10.760;2022-08-24T08:25:31;102134.50;;;24.02;64.57
30516;BME280;17297;54.022;10.760;2022-08-24T08:28:00;102134.00;;;24.05;64.82
30516;BME280;17297;54.022;10.760;2022-08-24T08:30:25;102136.25;;;24.08;65.13
30516;BME280;17297;54.022;10.760;2022-08-24T08:32:51;102144.00;;;24.11;64.78
30516;BME280;17297;54.022;10.760;2022-08-24T08:35:16;102145.41;;;24.13;64.30
30516;BME280;17297;54.022;10.760;2022-08-24T08:37:44;102142.16;;;24.16;63.99
30516;BME280;17297;54.022;10.760;2022-08-24T08:40:41;102140.00;;;24.18;64.28
30516;BME280;17297;54.022;10.760;2022-08-24T08:43:32;102138.69;;;24.21;64.23
30516;BME280;17297;54.022;10.760;2022-08-24T08:55:29;102132.41;;;24.26;63.16
30516;BME280;17297;54.022;10.760;2022-08-24T09:00:51;102139.66;;;24.32;63.52
30516;BME280;17297;54.022;10.760;2022-08-24T09:03:42;102138.31;;;24.34;63.43
30516;BME280;17297;54.022;10.760;2022-08-24T09:20:39;102118.06;;;24.40;63.19
30516;BME280;17297;54.022;10.760;2022-08-24T09:26:03;102123.09;;;24.43;62.53
30516;BME280;17297;54.022;10.760;2022-08-24T09:28:57;102118.19;;;24.46;62.88
30516;BME280;17297;54.022;10.760;2022-08-24T09:31:33;102122.91;;;24.50;64.44
30516;BME280;17297;54.022;10.760;2022-08-24T09:36:56;102111.59;;;24.47;65.28
30516;BME280;17297;54.022;10.760;2022-08-24T09:39:46;102115.25;;;24.52;65.15
30516;BME280;17297;54.022;10.760;2022-08-24T09:45:24;102109.06;;;24.45;66.31
30516;BME280;17297;54.022;10.760;2022-08-24T09:56:08;102113.00;;;24.32;66.37
30516;BME280;17297;54.022;10.760;2022-08-24T09:59:10;102110.50;;;24.31;66.46
30516;BME280;17297;54.022;10.760;2022-08-24T10:09:37;102114.59;;;24.28;66.12
30516;BME280;17297;54.022;10.760;2022-08-24T10:15:04;102111.84;;;24.28;66.79
30516;BME280;17297;54.022;10.760;2022-08-24T10:17:39;102103.09;;;24.31;66.79
30516;BME280;17297;54.022;10.760;2022-08-24T10:20:20;102099.75;;;24.29;66.06
30516;BME280;17297;54.022;10.760;2022-08-24T10:25:36;102096.44;;;24.27;65.76
30516;BME280;17297;54.022;10.760;2022-08-24T10:33:18;102097.50;;;24.26;65.60
30516;BME280;17297;54.022;10.760;2022-08-24T10:47:20;102100.06;;;24.33;64.54
30516;BME280;17297;54.022;10.760;2022-08-24T10:49:55;102101.25;;;24.37;64.46
30516;BME280;17297;54.022;10.760;2022-08-24T10:55:24;102111.91;;;24.33;65.69
30516;BME280;17297;54.022;10.760;2022-08-24T10:58:07;102111.34;;;24.31;65.85
30516;BME280;17297;54.022;10.760;2022-08-24T11:00:34;102100.34;;;24.31;65.76
30516;BME280;17297;54.022;10.760;2022-08-24T11:05:39;102105.50;;;24.28;66.60
30516;BME280;17297;54.022;10.760;2022-08-24T11:08:06;102101.94;;;24.27;67.45
30516;BME280;17297;54.022;10.760;2022-08-24T11:10:35;102102.44;;;24.24;67.54
30516;BME280;17297;54.022;10.760;2022-08-24T11:15:47;102097.94;;;24.18;68.09
30516;BME280;17297;54.022;10.760;2022-08-24T11:18:15;102100.94;;;24.16;68.41
30516;BME280;17297;54.022;10.760;2022-08-24T11:20:44;102106.94;;;24.13;68.67
30516;BME280;17297;54.022;10.760;2022-08-24T11:23:22;102102.53;;;24.12;68.74
30516;BME280;17297;54.022;10.760;2022-08-24T11:26:00;102110.78;;;24.12;68.48
30516;BME280;17297;54.022;10.760;2022-08-24T11:28:38;102104.69;;;24.10;68.35
30516;BME280;17297;54.022;10.760;2022-08-24T11:31:10;102109.63;;;24.08;68.65
30516;BME280;17297;54.022;10.760;2022-08-24T11:33:48;102107.94;;;24.07;68.56
30516;BME280;17297;54.022;10.760;2022-08-24T11:36:18;102098.63;;;24.08;68.96
30516;BME280;17297;54.022;10.760;2022-08-24T11:38:43;102102.19;;;24.09;69.26
30516;BME280;17297;54.022;10.760;2022-08-24T11:41:22;102107.94;;;24.07;69.70
30516;BME280;17297;54.022;10.760;2022-08-24T11:44:27;102102.09;;;24.04;69.83
30516;BME280;17297;54.022;10.760;2022-08-24T11:47:04;102100.69;;;24.01;69.25
30516;BME280;17297;54.022;10.760;2022-08-24T11:49:51;102104.25;;;24.02;69.80
30516;BME280;17297;54.022;10.760;2022-08-24T11:55:18;102102.00;;;23.98;69.79
30516;BME280;17297;54.022;10.760;2022-08-24T11:57:54;102109.19;;;24.00;69.89
30516;BME280;17297;54.022;10.760;2022-08-24T12:00:22;102107.00;;;24.02;69.73
30516;BME280;17297;54.022;10.760;2022-08-24T12:03:07;102104.19;;;23.96;69.73
30516;BME280;17297;54.022;10.760;2022-08-24T12:08:26;102114.44;;;24.01;70.19
30516;BME280;17297;54.022;10.760;2022-08-24T12:16:38;102114.69;;;24.00;70.45
30516;BME280;17297;54.022;10.760;2022-08-24T12:19:13;102111.94;;;24.00;70.00
30516;BME280;17297;54.022;10.760;2022-08-24T12:21:41;102116.84;;;23.97;70.05
30516;BME280;17297;54.022;10.760;2022-08-24T12:24:51;102117.13;;;23.96;70.02
30516;BME280;17297;54.022;10.760;2022-08-24T12:27:21;102111.84;;;23.94;70.47
30516;BME280;17297;54.022;10.760;2022-08-24T12:29:59;102107.34;;;23.88;70.01
30516;BME280;17297;54.022;10.760;2022-08-24T12:32:31;102102.69;;;23.89;69.85
30516;BME280;17297;54.022;10.760;2022-08-24T12:35:10;102098.78;;;23.85;70.37
30516;BME280;17297;54.022;10.760;2022-08-24T12:37:43;102112.78;;;23.83;70.29
30516;BME280;17297;54.022;10.760;2022-08-24T12:40:28;102101.44;;;23.80;69.80
30516;BME280;17297;54.022;10.760;2022-08-24T12:43:05;102100.59;;;23.79;69.94
30516;BME280;17297;54.022;10.760;2022-08-24T12:45:33;102112.09;;;23.76;70.31
30516;BME280;17297;54.022;10.760;2022-08-24T12:48:13;102106.03;;;23.74;70.00
30516;BME280;17297;54.022;10.760;2022-08-24T13:00:01;102110.94;;;23.72;70.92
30516;BME280;17297;54.022;10.760;2022-08-24T13:02:38;102107.19;;;23.78;70.93
30516;BME280;17297;54.022;10.760;2022-08-24T13:05:11;102098.69;;;23.80;70.75
30516;BME280;17297;54.022;10.760;2022-08-24T13:07:44;102102.03;;;23.82;70.70
30516;BME280;17297;54.022;10.760;2022-08-24T13:13:06;102105.59;;;23.82;70.81
30516;BME280;17297;54.022;10.760;2022-08-24T13:23:06;102111.41;;;23.86;70.96
30516;BME280;17297;54.022;10.760;2022-08-24T13:33:29;102105.94;;;23.86;70.61
30516;BME280;17297;54.022;10.760;2022-08-24T13:36:00;102099.88;;;23.84;70.11
30516;BME280;17297;54.022;10.760;2022-08-24T13:43:39;102105.03;;;23.80;70.72
30516;BME280;17297;54.022;10.760;2022-08-24T13:49:20;102104.09;;;23.74;70.86
30516;BME280;17297;54.022;10.760;2022-08-24T13:52:02;102098.63;;;23.74;70.44
30516;BME280;17297;54.022;10.760;2022-08-24T13:55:04;102106.25;;;23.72;70.49
30516;BME280;17297;54.022;10.760;2022-08-24T14:00:36;102102.44;;;23.73;70.53
30516;BME280;17297;54.022;10.760;2022-08-24T14:06:17;102102.44;;;23.73;70.55
30516;BME280;17297;54.022;10.760;2022-08-24T14:34:42;102090.59;;;23.73;70.07
30516;BME280;17297;54.022;10.760;2022-08-24T14:42:17;102095.59;;;23.76;70.78
30516;BME280;17297;54.022;10.760;2022-08-24T14:45:08;102092.28;;;23.74;70.45
30516;BME280;17297;54.022;10.760;2022-08-24T14:52:43;102079.38;;;23.74;70.42
30516;BME280;17297;54.022;10.760;2022-08-24T15:00:57;102082.38;;;23.73;71.01
30516;BME280;17297;54.022;10.760;2022-08-24T15:06:38;102075.81;;;23.74;70.90
30516;BME280;17297;54.022;10.760;2022-08-24T15:09:29;102074.38;;;23.71;70.41
30516;BME280;17297;54.022;10.760;2022-08-24T15:12:22;102069.97;;;23.70;70.24
30516;BME280;17297;54.022;10.760;2022-08-24T15:15:01;102066.16;;;23.71;70.84
30516;BME280;17297;54.022;10.760;2022-08-24T15:21:04;102064.47;;;23.70;70.87
30516;BME280;17297;54.022;10.760;2022-08-24T15:23:46;102068.91;;;23.71;70.89
30516;BME280;17297;54.022;10.760;2022-08-24T15:29:24;102063.03;;;23.68;70.35
30516;BME280;17297;54.022;10.760;2022-08-24T15:32:04;102064.09;;;23.67;70.63
30516;BME280;17297;54.022;10.760;2022-08-24T15:37:04;102066.63;;;23.68;70.54
30516;BME280;17297;54.022;10.760;2022-08-24T15:39:31;102057.78;;;23.66;71.07
30516;BME280;17297;54.022;10.760;2022-08-24T15:41:58;102064.94;;;23.67;71.02
30516;BME280;17297;54.022;10.760;2022-08-24T15:44:29;102061.13;;;23.68;71.15
30516;BME280;17297;54.022;10.760;2022-08-24T15:47:02;102058.88;;;23.65;70.98
30516;BME280;17297;54.022;10.760;2022-08-24T15:52:37;102072.59;;;23.65;70.78
30516;BME280;17297;54.022;10.760;2022-08-24T15:55:04;102062.94;;;23.63;70.32
30516;BME280;17297;54.022;10.760;2022-08-24T15:57:36;102064.59;;;23.64;70.41
30516;BME280;17297;54.022;10.760;2022-08-24T16:00:20;102058.88;;;23.65;70.62
30516;BME280;17297;54.022;10.760;2022-08-24T16:06:22;102061.84;;;23.64;70.66
30516;BME280;17297;54.022;10.760;2022-08-24T16:14:42;102057.78;;;23.66;71.06
30516;BME280;17297;54.022;10.760;2022-08-24T16:17:32;102050.88;;;23.64;70.95
30516;BME280;17297;54.022;10.760;2022-08-24T16:20:02;102053.38;;;23.65;71.32